Time;durP1;ratioP1;P1;durP2;ratioP2;P2;SDS_P1;SDS_P2;PMS_P1;PMS_P2;Temp;Humidity;BMP_temperature;BMP_pressure;BME280_temperature;BME280_humidity;BME280_pressure;Samples;Min_cycle;Max_cycle;Signal;HPM_P1;HPM_P2
2024/02/02 00:01:50;;;;;;;0.70;0.70;;;;;;;;;;10381992;28;20214;-78
2024/02/02 00:06:53;;;;;;;0.87;0.87;;;6.80;99.90;;;;;;10377781;28;20700;-79
2024/02/02 00:11:56;;;;;;;0.80;0.80;;;6.70;99.90;;;;;;10375613;28;20231;-79
2024/02/02 00:16:59;;;;;;;0.60;0.60;;;6.70;99.90;;;;;;10375216;28;20195;-80
2024/02/02 00:22:02;;;;;;;0.63;0.63;;;6.70;99.90;;;;;;10379610;28;20296;-79
2024/02/02 00:27:05;;;;;;;1.00;1.00;;;6.70;99.90;;;;;;10378405;28;20202;-79
2024/02/02 00:32:09;;;;;;;0.50;0.50;;;6.60;99.90;;;;;;10379054;28;20210;-79
2024/02/02 00:37:11;;;;;;;0.60;0.60;;;6.60;99.90;;;;;;10378825;28;20195;-79
2024/02/02 00:42:14;;;;;;;0.80;0.80;;;6.50;99.90;;;;;;10380547;28;20218;-80
2024/02/02 00:47:18;;;;;;;0.50;0.50;;;6.40;99.90;;;;;;10378735;28;20330;-79
2024/02/02 00:52:20;;;;;;;0.53;0.53;;;6.40;99.90;;;;;;10372143;28;20218;-79
2024/02/02 00:57:22;;;;;;;0.60;0.60;;;6.30;99.90;;;;;;10377084;28;20245;-80
2024/02/02 01:02:27;;;;;;;0.53;0.53;;;6.20;99.90;;;;;;10377817;28;20487;-79
2024/02/02 01:07:29;;;;;;;0.53;0.53;;;6.20;99.90;;;;;;10376875;28;20220;-79
2024/02/02 01:12:32;;;;;;;0.60;0.60;;;6.20;99.90;;;;;;10393811;28;20595;-79
2024/02/02 01:17:35;;;;;;;0.50;0.50;;;6.30;99.90;;;;;;10398883;28;20186;-79
2024/02/02 01:22:39;;;;;;;0.50;0.50;;;6.30;99.90;;;;;;10397091;28;20228;-80
2024/02/02 01:27:42;;;;;;;0.60;0.60;;;6.20;99.90;;;;;;10392934;28;20248;-79
2024/02/02 01:32:46;;;;;;;0.50;0.50;;;6.20;99.90;;;;;;10396504;28;20186;-79
2024/02/02 01:37:48;;;;;;;0.50;0.50;;;6.20;99.90;;;;;;10395026;28;20253;-79
2024/02/02 01:42:51;;;;;;;0.50;0.50;;;6.10;99.90;;;;;;10392820;28;20222;-80
2024/02/02 01:47:55;;;;;;;0.60;0.60;;;6.10;99.90;;;;;;10395768;28;20218;-80
2024/02/02 01:52:57;;;;;;;0.53;0.53;;;6.10;99.90;;;;;;10396194;28;20190;-79
2024/02/02 01:58:00;;;;;;;0.53;0.53;;;6.10;99.90;;;;;;10395686;28;20551;-79
2024/02/02 02:03:04;;;;;;;0.60;0.60;;;6.10;99.90;;;;;;10392293;28;20211;-79
2024/02/02 02:08:07;;;;;;;0.50;0.50;;;6.20;99.90;;;;;;10394706;28;20230;-79
2024/02/02 02:13:10;;;;;;;0.40;0.40;;;6.10;99.90;;;;;;10395133;28;20199;-79
2024/02/02 02:18:14;;;;;;;0.50;0.50;;;6.10;99.90;;;;;;10397874;28;20206;-79
2024/02/02 02:23:17;;;;;;;0.40;0.40;;;6.10;99.90;;;;;;10412410;28;20236;-79
2024/02/02 02:28:20;;;;;;;0.60;0.60;;;6.10;99.90;;;;;;10387891;28;20229;-79
2024/02/02 02:33:22;;;;;;;0.50;0.50;;;6.00;99.90;;;;;;10394127;28;20186;-79
2024/02/02 02:38:26;;;;;;;0.50;0.50;;;6.00;99.90;;;;;;10392023;28;20229;-79
2024/02/02 02:43:29;;;;;;;0.50;0.50;;;6.00;99.90;;;;;;10391654;28;20599;-80
2024/02/02 02:48:31;;;;;;;0.50;0.50;;;6.00;99.90;;;;;;10391894;28;20222;-79
2024/02/02 02:53:35;;;;;;;0.50;0.50;;;6.00;99.90;;;;;;10392980;28;20199;-80
2024/02/02 02:58:37;;;;;;;0.50;0.50;;;6.00;99.90;;;;;;10390882;28;20214;-80
2024/02/02 03:03:40;;;;;;;0.50;0.50;;;6.00;99.90;;;;;;10392100;28;20222;-79
2024/02/02 03:08:44;;;;;;;0.43;0.43;;;6.00;99.90;;;;;;10390620;28;20757;-78
2024/02/02 03:13:46;;;;;;;0.50;0.50;;;6.10;99.90;;;;;;10392233;28;20265;-79
2024/02/02 03:18:49;;;;;;;0.50;0.50;;;6.20;99.90;;;;;;10390804;28;20214;-80
2024/02/02 03:23:52;;;;;;;0.50;0.50;;;6.20;99.90;;;;;;10388008;28;20210;-79
2024/02/02 03:28:56;;;;;;;0.50;0.50;;;6.20;99.90;;;;;;10388233;28;20222;-79
2024/02/02 03:33:59;;;;;;;0.50;0.50;;;6.20;99.90;;;;;;10386157;28;20198;-80
2024/02/02 03:39:03;;;;;;;0.50;0.50;;;6.30;99.90;;;;;;10392466;28;20211;-78
2024/02/02 03:44:05;;;;;;;0.50;0.50;;;6.30;99.90;;;;;;10401507;28;20237;-78
2024/02/02 03:49:08;;;;;;;0.60;0.60;;;6.30;99.90;;;;;;10405125;28;20221;-79
2024/02/02 03:54:12;;;;;;;0.70;0.70;;;6.30;99.90;;;;;;10393152;28;20191;-79
2024/02/02 03:59:14;;;;;;;0.50;0.50;;;6.40;99.90;;;;;;10380424;28;20632;-79
2024/02/02 04:04:17;;;;;;;0.83;0.83;;;6.50;99.90;;;;;;10377934;28;20210;-78
2024/02/02 04:09:20;;;;;;;0.97;0.97;;;6.40;99.90;;;;;;10373962;28;20249;-78
2024/02/02 04:14:23;;;;;;;0.80;0.80;;;6.40;99.90;;;;;;10379679;28;20194;-78
2024/02/02 04:19:25;;;;;;;0.80;0.80;;;6.40;99.90;;;;;;10372268;28;20217;-78
2024/02/02 04:24:29;;;;;;;1.07;1.07;;;6.40;99.90;;;;;;10372449;28;20277;-78
2024/02/02 04:29:32;;;;;;;0.90;0.90;;;6.50;99.90;;;;;;10371375;28;20214;-78
2024/02/02 04:34:34;;;;;;;0.80;0.80;;;6.50;99.90;;;;;;10371842;28;20195;-78
2024/02/02 04:39:38;;;;;;;0.80;0.80;;;6.60;99.90;;;;;;10376931;28;20225;-78
2024/02/02 04:44:40;;;;;;;0.97;0.97;;;6.70;99.90;;;;;;10410474;28;20222;-79
2024/02/02 04:49:43;;;;;;;0.90;0.90;;;6.80;99.90;;;;;;10410356;28;20218;-78
2024/02/02 04:54:47;;;;;;;1.00;1.00;;;6.90;99.90;;;;;;10392282;28;20244;-77
2024/02/02 04:59:50;;;;;;;0.87;0.87;;;7.00;99.90;;;;;;10404471;28;20218;-79
2024/02/02 05:04:52;;;;;;;0.90;0.90;;;7.10;99.90;;;;;;10378210;28;20206;-79
2024/02/02 05:09:56;;;;;;;0.87;0.87;;;7.10;99.90;;;;;;10407738;28;20699;-79
2024/02/02 05:14:58;;;;;;;0.90;0.90;;;7.20;99.90;;;;;;10407063;28;20194;-79
2024/02/02 05:20:02;;;;;;;0.80;0.80;;;7.20;99.90;;;;;;10411775;28;20214;-79
2024/02/02 05:25:06;;;;;;;0.70;0.70;;;7.30;99.90;;;;;;10414696;28;20610;-79
2024/02/02 05:30:09;;;;;;;0.70;0.70;;;7.30;99.90;;;;;;10406704;28;20638;-79
2024/02/02 05:35:12;;;;;;;0.70;0.70;;;7.40;99.90;;;;;;10404435;28;20560;-79
2024/02/02 05:40:16;;;;;;;0.70;0.70;;;7.40;99.90;;;;;;10404326;28;20218;-79
2024/02/02 05:45:18;;;;;;;0.70;0.70;;;7.40;99.90;;;;;;10408014;28;20265;-79
2024/02/02 05:50:20;;;;;;;0.60;0.60;;;7.50;99.90;;;;;;10404037;28;20707;-79
2024/02/02 05:55:24;;;;;;;0.60;0.60;;;7.50;99.90;;;;;;10404953;28;20656;-78
2024/02/02 06:00:26;;;;;;;0.70;0.70;;;7.50;99.90;;;;;;10411170;28;20237;-79
2024/02/02 06:05:32;;;;;;;0.60;0.60;;;7.60;99.90;;;;;;10396810;28;20646;-79
2024/02/02 06:10:36;;;;;;;0.70;0.70;;;7.50;99.90;;;;;;10407340;28;20226;-79
2024/02/02 06:15:38;;;;;;;0.57;0.57;;;7.60;99.90;;;;;;10414733;28;20679;-79
2024/02/02 06:20:41;;;;;;;0.60;0.60;;;7.60;99.90;;;;;;10412547;28;20236;-79
2024/02/02 06:25:45;;;;;;;0.47;0.47;;;7.60;99.90;;;;;;10381432;28;20226;-78
2024/02/02 06:30:48;;;;;;;0.60;0.60;;;7.60;99.90;;;;;;10387650;28;20229;-79
2024/02/02 06:35:50;;;;;;;0.50;0.50;;;7.60;99.90;;;;;;10400956;28;20190;-79
2024/02/02 06:40:54;;;;;;;0.60;0.60;;;7.60;99.90;;;;;;10409545;28;20762;-79
2024/02/02 06:45:56;;;;;;;0.50;0.50;;;7.60;99.90;;;;;;10389727;28;20218;-79
2024/02/02 06:50:59;;;;;;;0.60;0.60;;;7.70;99.90;;;;;;10387297;28;20610;-79
2024/02/02 06:56:08;;;;;;;0.70;0.70;;;7.60;99.90;;;;;;10419856;28;20194;-79
2024/02/02 07:01:11;;;;;;;0.60;0.60;;;7.70;99.90;;;;;;10417539;28;20754;-79
2024/02/02 07:06:13;;;;;;;0.60;0.60;;;7.70;99.90;;;;;;10412521;28;20244;-79
2024/02/02 07:11:58;;;;;;;0.70;0.70;;;7.80;99.90;;;;;;10412056;28;20218;-79
2024/02/02 07:17:00;;;;;;;0.70;0.70;;;7.80;99.90;;;;;;10300971;28;20237;-79
2024/02/02 07:22:09;;;;;;;0.60;0.60;;;7.70;99.90;;;;;;10413674;28;20217;-79
2024/02/02 07:27:28;;;;;;;0.67;0.67;;;7.80;99.90;;;;;;10412110;28;20218;-79
2024/02/02 07:32:31;;;;;;;0.60;0.60;;;7.80;99.90;;;;;;10411613;28;20210;-79
2024/02/02 07:37:45;;;;;;;0.67;0.67;;;7.80;99.90;;;;;;10410517;28;20252;-79
2024/02/02 07:42:49;;;;;;;0.70;0.70;;;7.90;99.90;;;;;;10405895;28;20619;-79
2024/02/02 07:47:52;;;;;;;0.70;0.70;;;7.90;99.90;;;;;;10404440;28;20264;-79
2024/02/02 07:52:55;;;;;;;0.60;0.60;;;8.00;99.90;;;;;;10403941;28;20232;-79
2024/02/02 07:57:59;;;;;;;0.60;0.60;;;8.00;99.90;;;;;;10404865;28;20576;-80
2024/02/02 08:03:01;;;;;;;0.50;0.50;;;8.10;99.90;;;;;;10402410;28;20647;-79
2024/02/02 08:08:04;;;;;;;0.50;0.50;;;8.20;99.90;;;;;;10400870;28;20267;-79
2024/02/02 08:13:08;;;;;;;0.50;0.50;;;8.30;99.90;;;;;;10404028;28;20652;-78
2024/02/02 08:18:12;;;;;;;0.50;0.50;;;8.40;99.90;;;;;;10402666;28;20259;-79
2024/02/02 08:23:14;;;;;;;0.50;0.50;;;8.50;99.90;;;;;;10403950;28;20193;-79
2024/02/02 08:28:18;;;;;;;0.50;0.50;;;8.60;99.90;;;;;;10400559;28;20263;-79
2024/02/02 08:33:20;;;;;;;0.30;0.30;;;8.70;99.90;;;;;;10403784;28;20691;-79
2024/02/02 08:38:23;;;;;;;0.30;0.30;;;8.70;99.90;;;;;;10402932;28;20220;-79
2024/02/02 08:43:27;;;;;;;0.30;0.30;;;8.80;99.90;;;;;;10403039;28;20194;-79
2024/02/02 08:48:36;;;;;;;0.30;0.30;;;8.80;99.90;;;;;;10399391;28;20812;-79
2024/02/02 08:53:38;;;;;;;0.30;0.30;;;8.90;99.90;;;;;;10392237;28;20202;-79
2024/02/02 08:58:42;;;;;;;0.30;0.30;;;8.90;99.90;;;;;;10393849;28;20462;-79
2024/02/02 09:03:46;;;;;;;0.30;0.30;;;9.00;99.90;;;;;;10395020;28;20252;-79
2024/02/02 09:08:49;;;;;;;0.40;0.40;;;9.10;99.90;;;;;;10395310;28;20222;-79
2024/02/02 09:14:15;;;;;;;0.40;0.40;;;9.20;99.90;;;;;;10396598;28;20652;-79
2024/02/02 09:19:25;;;;;;;0.30;0.30;;;9.30;99.90;;;;;;10394417;28;20218;-79
2024/02/02 09:24:41;;;;;;;0.30;0.30;;;9.30;99.90;;;;;;10396557;28;20214;-79
2024/02/02 09:29:50;;;;;;;0.30;0.30;;;9.40;99.90;;;;;;10394258;28;20217;-79
2024/02/02 09:34:52;;;;;;;0.20;0.20;;;9.40;99.90;;;;;;10393282;28;20202;-78
2024/02/02 09:39:56;;;;;;;0.20;0.20;;;9.50;99.90;;;;;;10392488;28;20703;-79
2024/02/02 09:45:03;;;;;;;0.30;0.30;;;9.60;99.90;;;;;;10392851;28;20222;-79
2024/02/02 09:50:21;;;;;;;0.30;0.30;;;9.60;99.90;;;;;;10393310;28;20225;-80
2024/02/02 09:55:28;;;;;;;0.30;0.30;;;9.70;99.90;;;;;;10392601;28;20536;-80
2024/02/02 10:00:41;;;;;;;0.30;0.30;;;9.80;99.90;;;;;;10390583;28;20217;-79
2024/02/02 10:05:54;;;;;;;0.30;0.30;;;9.80;99.90;;;;;;10390760;28;20229;-80
2024/02/02 10:11:14;;;;;;;0.20;0.20;;;9.80;99.90;;;;;;10418349;22;20263;-80
2024/02/02 10:16:30;;;;;;;0.20;0.20;;;9.90;99.90;;;;;;10423291;28;20231;-81
2024/02/02 10:21:47;;;;;;;0.30;0.30;;;10.00;99.90;;;;;;10454115;28;20236;-81
2024/02/02 10:27:12;;;;;;;0.30;0.30;;;10.00;99.90;;;;;;10417016;28;20213;-83
2024/02/02 10:32:33;;;;;;;0.40;0.40;;;10.00;99.90;;;;;;10436012;28;20730;-80
2024/02/02 10:37:37;;;;;;;0.30;0.30;;;10.00;99.90;;;;;;10420397;28;20255;-78
2024/02/02 10:42:54;;;;;;;0.30;0.30;;;9.90;99.90;;;;;;10415193;28;20599;-80
2024/02/02 10:48:31;;;;;;;0.30;0.30;;;9.90;99.90;;;;;;10409795;28;20237;-83
2024/02/02 10:53:47;;;;;;;0.30;0.30;;;9.90;99.90;;;;;;10424520;28;20255;-82
2024/02/02 10:59:04;;;;;;;0.30;0.30;;;9.90;99.90;;;;;;10412669;28;20205;-79
2024/02/02 11:04:23;;;;;;;0.23;0.23;;;9.90;99.90;;;;;;10412145;28;20272;-80
2024/02/02 11:09:34;;;;;;;0.30;0.30;;;9.80;99.90;;;;;;10427370;28;20224;-79
2024/02/02 11:14:39;;;;;;;0.30;0.30;;;9.90;99.90;;;;;;10436878;28;20240;-82
2024/02/02 11:19:58;;;;;;;0.30;0.30;;;10.00;99.90;;;;;;10418469;28;20226;-81
2024/02/02 11:25:10;;;;;;;0.40;0.40;;;9.90;99.90;;;;;;10425411;28;20757;-80
2024/02/02 11:30:28;;;;;;;0.30;0.30;;;10.00;99.90;;;;;;10412676;28;20222;-80
2024/02/02 11:35:44;;;;;;;0.30;0.30;;;10.00;99.90;;;;;;10413686;28;20907;-79
2024/02/02 11:40:49;;;;;;;0.20;0.20;;;10.00;99.90;;;;;;10411367;28;20737;-78
2024/02/02 11:45:54;;;;;;;0.30;0.30;;;10.10;99.90;;;;;;10415008;28;20221;-78
2024/02/02 11:50:59;;;;;;;0.30;0.30;;;10.10;99.90;;;;;;10446188;28;20617;-77
2024/02/02 11:56:06;;;;;;;0.30;0.30;;;10.20;99.90;;;;;;10412261;28;20194;-81
2024/02/02 12:01:28;;;;;;;0.30;0.30;;;10.30;99.90;;;;;;10409185;28;20264;-81
2024/02/02 12:06:36;;;;;;;0.37;0.37;;;10.50;99.90;;;;;;10407569;28;20217;-77
2024/02/02 12:11:40;;;;;;;0.30;0.30;;;10.60;99.90;;;;;;10446788;28;20559;-79
2024/02/02 12:16:42;;;;;;;0.30;0.30;;;10.70;99.90;;;;;;10410596;28;20267;-79
2024/02/02 12:21:47;;;;;;;0.30;0.30;;;10.80;99.90;;;;;;10448666;28;20244;-79
2024/02/02 12:26:49;;;;;;;0.30;0.30;;;10.80;99.60;;;;;;10415755;28;20218;-81
2024/02/02 12:31:52;;;;;;;0.30;0.30;;;10.90;99.50;;;;;;10448545;28;20251;-78
2024/02/02 12:36:58;;;;;;;0.20;0.20;;;10.90;99.50;;;;;;10409583;28;20252;-77
2024/02/02 12:42:02;;;;;;;0.10;0.10;;;11.00;98.80;;;;;;10447674;28;20244;-78
2024/02/02 12:47:06;;;;;;;0.20;0.20;;;11.10;98.60;;;;;;10409803;28;20222;-79
2024/02/02 12:52:10;;;;;;;0.20;0.20;;;11.10;98.70;;;;;;10450743;28;20635;-80
2024/02/02 12:57:12;;;;;;;0.20;0.20;;;11.10;98.50;;;;;;10411379;28;20190;-83
2024/02/02 13:02:16;;;;;;;0.20;0.20;;;11.10;97.60;;;;;;10470213;28;20225;-82
2024/02/02 13:07:20;;;;;;;0.20;0.20;;;11.10;97.90;;;;;;10467930;28;20699;-79
2024/02/02 13:12:28;;;;;;;0.20;0.20;;;11.10;97.10;;;;;;10368400;28;20687;-79
2024/02/02 13:17:30;;;;;;;0.20;0.20;;;11.20;96.80;;;;;;10370797;28;20187;-81
2024/02/02 13:22:35;;;;;;;0.20;0.20;;;11.10;97.50;;;;;;10412647;28;20229;-80
2024/02/02 13:27:39;;;;;;;0.20;0.20;;;11.20;97.60;;;;;;10400806;28;20233;-80
2024/02/02 13:32:45;;;;;;;0.20;0.20;;;11.20;97.20;;;;;;10370145;28;20218;-83
2024/02/02 13:37:51;;;;;;;0.20;0.20;;;11.30;96.60;;;;;;10373406;28;20735;-80
2024/02/02 13:42:54;;;;;;;0.20;0.20;;;11.30;97.20;;;;;;10377408;28;20264;-79
2024/02/02 13:47:59;;;;;;;0.20;0.20;;;11.30;97.10;;;;;;10385217;28;20722;-80
2024/02/02 13:53:05;;;;;;;0.20;0.20;;;11.40;96.50;;;;;;10410443;28;20222;-81
2024/02/02 13:58:08;;;;;;;0.30;0.30;;;11.40;96.10;;;;;;10443374;28;20198;-80
2024/02/02 14:03:11;;;;;;;0.20;0.20;;;11.30;96.30;;;;;;10421071;28;20624;-79
2024/02/02 14:08:17;;;;;;;0.20;0.20;;;11.30;96.10;;;;;;10408256;28;20761;-78
2024/02/02 14:13:20;;;;;;;0.20;0.20;;;11.30;94.90;;;;;;10407003;28;20225;-79
2024/02/02 14:18:23;;;;;;;0.20;0.20;;;11.30;94.00;;;;;;10411083;28;20193;-77
2024/02/02 14:23:27;;;;;;;0.20;0.20;;;11.30;94.40;;;;;;10409856;28;20718;-79
2024/02/02 14:28:29;;;;;;;0.20;0.20;;;11.30;95.40;;;;;;10420170;28;20332;-78
2024/02/02 14:33:33;;;;;;;0.30;0.30;;;11.40;93.70;;;;;;10416838;28;20665;-79
2024/02/02 14:38:43;;;;;;;0.30;0.30;;;11.30;94.30;;;;;;10416955;28;20328;-78
2024/02/02 14:43:46;;;;;;;0.30;0.30;;;11.30;94.80;;;;;;10414111;28;20648;-79
2024/02/02 14:48:50;;;;;;;0.30;0.30;;;11.30;93.70;;;;;;10419999;28;20221;-80
2024/02/02 14:53:53;;;;;;;0.30;0.30;;;11.30;93.20;;;;;;10415969;28;20279;-80
2024/02/02 14:59:05;;;;;;;0.30;0.30;;;11.30;94.20;;;;;;10420535;28;20262;-80
2024/02/02 15:04:08;;;;;;;0.30;0.30;;;11.30;95.70;;;;;;10412297;28;20621;-78
2024/02/02 15:09:13;;;;;;;0.30;0.30;;;11.30;95.20;;;;;;10419444;28;20248;-81
2024/02/02 15:14:16;;;;;;;0.30;0.30;;;11.30;95.70;;;;;;10419168;28;20217;-80
2024/02/02 15:19:18;;;;;;;0.30;0.30;;;11.20;95.90;;;;;;10424654;28;20243;-77
2024/02/02 15:24:22;;;;;;;0.30;0.30;;;11.20;95.60;;;;;;10424275;28;20198;-77
2024/02/02 15:29:25;;;;;;;0.30;0.30;;;11.20;95.60;;;;;;10420912;28;20217;-79
2024/02/02 15:34:27;;;;;;;0.30;0.30;;;11.20;95.50;;;;;;10432197;28;20205;-77
2024/02/02 15:39:31;;;;;;;0.30;0.30;;;11.20;95.40;;;;;;10422587;28;20205;-79
2024/02/02 15:44:33;;;;;;;0.30;0.30;;;11.10;95.70;;;;;;10417109;28;20255;-78
2024/02/02 15:49:37;;;;;;;0.30;0.30;;;11.00;96.10;;;;;;10428072;28;20225;-76
2024/02/02 15:54:42;;;;;;;0.30;0.30;;;10.90;96.50;;;;;;10430267;28;20247;-79
2024/02/02 15:59:44;;;;;;;0.30;0.30;;;10.90;96.80;;;;;;10432886;28;20247;-82
2024/02/02 16:04:47;;;;;;;0.20;0.20;;;10.90;96.60;;;;;;10442714;28;20677;-77
2024/02/02 16:09:51;;;;;;;0.30;0.30;;;10.90;96.40;;;;;;10425725;28;20352;-79
2024/02/02 16:14:53;;;;;;;0.30;0.30;;;10.80;96.40;;;;;;10432639;28;21092;-80
2024/02/02 16:19:56;;;;;;;0.30;0.30;;;10.70;96.70;;;;;;10431825;28;20563;-79
2024/02/02 16:24:59;;;;;;;0.30;0.30;;;10.70;96.60;;;;;;10429848;28;20213;-80
2024/02/02 16:30:02;;;;;;;0.30;0.30;;;10.70;96.70;;;;;;10413014;28;20734;-78
2024/02/02 16:35:07;;;;;;;0.30;0.30;;;10.60;96.80;;;;;;10417404;28;20689;-79
2024/02/02 16:40:11;;;;;;;0.40;0.40;;;10.50;96.90;;;;;;10448437;28;20222;-77
2024/02/02 16:45:15;;;;;;;0.30;0.30;;;10.50;96.90;;;;;;10424628;28;20189;-79
2024/02/02 16:50:18;;;;;;;0.30;0.30;;;10.50;97.00;;;;;;10432206;28;20240;-77
2024/02/02 16:55:22;;;;;;;0.30;0.30;;;10.40;97.10;;;;;;10428479;28;20734;-80
2024/02/02 17:00:24;;;;;;;0.40;0.40;;;10.40;97.10;;;;;;10419366;28;20213;-79
2024/02/02 17:05:26;;;;;;;0.30;0.30;;;10.40;97.40;;;;;;10430732;28;20239;-79
2024/02/02 17:10:30;;;;;;;0.30;0.30;;;10.30;97.30;;;;;;10423303;28;20225;-79
2024/02/02 17:15:34;;;;;;;0.30;0.30;;;10.30;97.20;;;;;;10413506;28;20223;-80
2024/02/02 17:20:36;;;;;;;0.30;0.30;;;10.30;96.80;;;;;;10405403;28;21045;-78
2024/02/02 17:25:40;;;;;;;0.30;0.30;;;10.30;96.80;;;;;;10410134;28;20194;-78
2024/02/02 17:30:44;;;;;;;0.20;0.20;;;10.20;97.20;;;;;;10404170;28;20222;-79
2024/02/02 17:35:46;;;;;;;0.30;0.30;;;10.20;96.90;;;;;;10415289;28;20206;-80
2024/02/02 17:40:50;;;;;;;0.30;0.30;;;10.10;97.00;;;;;;10421282;28;20225;-79
2024/02/02 17:45:53;;;;;;;0.30;0.30;;;10.10;97.30;;;;;;10421172;28;20201;-80
2024/02/02 17:50:55;;;;;;;0.27;0.27;;;10.10;96.70;;;;;;10421532;28;20229;-80
2024/02/02 17:56:02;;;;;;;0.30;0.30;;;10.00;96.50;;;;;;10427099;28;20194;-79
2024/02/02 18:01:05;;;;;;;0.20;0.20;;;10.10;96.60;;;;;;10436270;28;20217;-76
2024/02/02 18:06:07;;;;;;;0.30;0.30;;;10.10;96.10;;;;;;10424425;28;20260;-78
2024/02/02 18:11:11;;;;;;;0.40;0.40;;;10.00;96.00;;;;;;10425305;28;20699;-77
2024/02/02 18:16:14;;;;;;;0.40;0.40;;;10.10;95.90;;;;;;10425450;28;20198;-79
2024/02/02 18:21:16;;;;;;;0.40;0.40;;;10.10;95.90;;;;;;10430578;28;20225;-78
2024/02/02 18:26:20;;;;;;;0.40;0.40;;;10.00;96.30;;;;;;10419547;28;20247;-78
2024/02/02 18:31:22;;;;;;;0.37;0.37;;;10.00;96.10;;;;;;10414349;28;20302;-79
2024/02/02 18:36:25;;;;;;;0.30;0.30;;;9.90;96.60;;;;;;10411193;28;20260;-77
2024/02/02 18:41:29;;;;;;;0.30;0.30;;;9.90;97.10;;;;;;10405397;28;20662;-77
2024/02/02 18:46:32;;;;;;;0.30;0.30;;;9.90;97.20;;;;;;10421169;28;20205;-77
2024/02/02 18:51:34;;;;;;;0.30;0.30;;;9.90;97.10;;;;;;10405003;28;20234;-78
2024/02/02 18:56:38;;;;;;;0.30;0.30;;;9.90;97.00;;;;;;10408388;28;20206;-79
2024/02/02 19:01:40;;;;;;;0.30;0.30;;;9.90;97.00;;;;;;10414887;28;20222;-79
2024/02/02 19:06:43;;;;;;;0.30;0.30;;;9.90;96.90;;;;;;10402957;28;20636;-78
2024/02/02 19:11:47;;;;;;;0.30;0.30;;;9.80;97.30;;;;;;10414940;28;20222;-81
2024/02/02 19:16:49;;;;;;;0.30;0.30;;;9.80;96.80;;;;;;10414645;28;20538;-78
2024/02/02 19:21:52;;;;;;;0.30;0.30;;;9.80;96.80;;;;;;10410883;28;20275;-80
2024/02/02 19:26:56;;;;;;;0.37;0.37;;;9.80;96.50;;;;;;10422173;28;20209;-78
2024/02/02 19:31:58;;;;;;;0.40;0.40;;;9.90;96.20;;;;;;10411348;28;20283;-79
2024/02/02 19:37:02;;;;;;;0.40;0.40;;;9.90;96.30;;;;;;10416084;28;20201;-78
2024/02/02 19:42:06;;;;;;;0.40;0.40;;;9.80;96.10;;;;;;10432780;28;20703;-79
2024/02/02 19:47:10;;;;;;;0.30;0.30;;;9.80;96.10;;;;;;10417440;28;20213;-79
2024/02/02 19:52:12;;;;;;;0.30;0.30;;;9.90;95.80;;;;;;10431735;28;20217;-81
2024/02/02 19:57:16;;;;;;;0.30;0.30;;;9.90;95.80;;;;;;10411746;28;20248;-80
2024/02/02 20:02:24;;;;;;;0.30;0.30;;;9.90;95.60;;;;;;10429184;28;20221;-79
2024/02/02 20:07:27;;;;;;;0.30;0.30;;;9.90;95.20;;;;;;10422836;28;20244;-79
2024/02/02 20:12:30;;;;;;;0.30;0.30;;;10.00;94.60;;;;;;10427029;28;20225;-78
2024/02/02 20:17:33;;;;;;;0.30;0.30;;;9.90;95.10;;;;;;10444990;28;20644;-76
2024/02/02 20:22:35;;;;;;;0.40;0.40;;;9.90;95.00;;;;;;10434004;28;20244;-77
2024/02/02 20:27:39;;;;;;;0.30;0.30;;;10.00;94.20;;;;;;10427354;28;20229;-78
2024/02/02 20:32:42;;;;;;;0.30;0.30;;;10.00;94.30;;;;;;10427712;28;20213;-77
2024/02/02 20:37:45;;;;;;;0.30;0.30;;;10.00;93.80;;;;;;10430088;28;20527;-78
2024/02/02 20:42:49;;;;;;;0.40;0.40;;;10.00;93.70;;;;;;10435240;28;20217;-81
2024/02/02 20:47:51;;;;;;;0.40;0.40;;;10.00;93.60;;;;;;10439005;28;20213;-79
2024/02/02 20:52:54;;;;;;;0.30;0.30;;;10.00;94.00;;;;;;10435265;28;20230;-78
2024/02/02 20:58:01;;;;;;;0.30;0.30;;;9.90;94.70;;;;;;10415310;28;20259;-78
2024/02/02 21:03:03;;;;;;;0.30;0.30;;;9.80;94.70;;;;;;10408183;28;20222;-78
2024/02/02 21:08:06;;;;;;;0.30;0.30;;;9.80;95.30;;;;;;10419693;28;20217;-78
2024/02/02 21:13:11;;;;;;;0.30;0.30;;;9.70;94.90;;;;;;10422718;28;20232;-80
2024/02/02 21:18:15;;;;;;;0.30;0.30;;;9.70;94.70;;;;;;10424787;28;20201;-79
2024/02/02 21:23:17;;;;;;;0.40;0.40;;;9.60;94.70;;;;;;10424668;28;20220;-80
2024/02/02 21:28:21;;;;;;;0.40;0.40;;;9.60;94.60;;;;;;10416577;28;20225;-80
2024/02/02 21:33:24;;;;;;;0.20;0.20;;;9.60;94.70;;;;;;10420694;28;20644;-80
2024/02/02 21:38:27;;;;;;;0.20;0.20;;;9.50;94.80;;;;;;10408489;28;20325;-80
2024/02/02 21:43:30;;;;;;;0.30;0.30;;;9.40;94.90;;;;;;10408045;28;20228;-78
2024/02/02 21:48:33;;;;;;;0.30;0.30;;;9.20;94.90;;;;;;10407082;28;20722;-77
2024/02/02 21:53:36;;;;;;;0.30;0.30;;;9.20;95.10;;;;;;10407721;28;20284;-80
2024/02/02 21:58:39;;;;;;;0.20;0.20;;;9.10;95.20;;;;;;10423311;28;20260;-78
2024/02/02 22:03:42;;;;;;;0.30;0.30;;;9.00;95.00;;;;;;10407293;28;20646;-79
2024/02/02 22:08:44;;;;;;;0.20;0.20;;;8.90;94.90;;;;;;10407197;28;20236;-78
2024/02/02 22:13:48;;;;;;;0.30;0.30;;;8.80;94.80;;;;;;10436332;22;20368;-78
2024/02/02 22:18:51;;;;;;;0.30;0.30;;;8.80;94.70;;;;;;10464634;28;20197;-78
2024/02/02 22:23:53;;;;;;;0.20;0.20;;;8.80;95.10;;;;;;10451257;28;20232;-77
2024/02/02 22:28:57;;;;;;;0.20;0.20;;;8.70;95.00;;;;;;10435451;28;20218;-77
2024/02/02 22:33:59;;;;;;;0.30;0.30;;;8.60;95.50;;;;;;10409192;28;20225;-77
2024/02/02 22:39:03;;;;;;;0.30;0.30;;;8.50;95.50;;;;;;10420613;28;20206;-78
2024/02/02 22:44:07;;;;;;;0.30;0.30;;;8.40;95.70;;;;;;10407185;28;20589;-78
2024/02/02 22:49:09;;;;;;;0.30;0.30;;;8.30;95.70;;;;;;10425008;28;20222;-78
2024/02/02 22:54:12;;;;;;;0.33;0.33;;;8.20;95.70;;;;;;10413342;28;20222;-78
2024/02/02 22:59:15;;;;;;;0.40;0.40;;;8.10;96.00;;;;;;10426402;28;20202;-78
2024/02/02 23:04:18;;;;;;;0.27;0.27;;;8.00;96.00;;;;;;10409637;28;20226;-77
2024/02/02 23:09:20;;;;;;;0.30;0.30;;;7.90;95.90;;;;;;10420367;28;20292;-78
2024/02/02 23:14:24;;;;;;;0.30;0.30;;;7.90;95.90;;;;;;10427095;28;20221;-78
2024/02/02 23:19:27;;;;;;;0.40;0.40;;;7.80;96.00;;;;;;10440083;28;20243;-76
2024/02/02 23:24:29;;;;;;;0.30;0.30;;;7.80;95.90;;;;;;10437870;28;20259;-77
2024/02/02 23:29:33;;;;;;;0.30;0.30;;;7.70;96.20;;;;;;10437514;28;20213;-77
2024/02/02 23:34:35;;;;;;;0.30;0.30;;;7.70;96.30;;;;;;10436581;28;20334;-77
2024/02/02 23:39:38;;;;;;;0.30;0.30;;;7.60;96.30;;;;;;10437754;28;20193;-78
2024/02/02 23:44:42;;;;;;;0.30;0.30;;;7.50;96.40;;;;;;10436275;28;20689;-78
2024/02/02 23:49:44;;;;;;;0.30;0.30;;;7.50;96.50;;;;;;10433868;28;20221;-78
2024/02/02 23:54:47;;;;;;;0.30;0.30;;;7.40;96.60;;;;;;10432987;28;20217;-77
2024/02/02 23:59:51;;;;;;;0.30;0.30;;;7.40;96.70;;;;;;10397503;28;20209;-77
